createdAt,value
2022-10-03T08:07:45.561Z,13.10
2022-10-03T08:10:27.385Z,13.10
2022-10-03T08:13:31.710Z,13.10
2022-10-03T08:16:34.512Z,12.80
2022-10-03T08:19:39.586Z,12.80
2022-10-03T08:22:29.911Z,12.60
2022-10-03T08:25:22.770Z,12.50
2022-10-03T08:28:17.673Z,12.50
2022-10-03T08:31:21.134Z,12.50
2022-10-03T08:34:06.270Z,12.50
2022-10-03T08:37:17.477Z,12.40
2022-10-03T08:40:01.061Z,12.40
2022-10-03T08:43:05.864Z,12.40
2022-10-03T08:45:41.423Z,12.60
2022-10-03T08:48:25.010Z,12.60
2022-10-03T08:51:31.184Z,12.60
2022-10-03T08:54:28.298Z,12.60
2022-10-03T08:56:57.648Z,12.90
2022-10-03T08:59:54.358Z,13.10
2022-10-03T09:02:32.225Z,13.10
2022-10-03T09:05:25.705Z,13.10
2022-10-03T09:07:52.223Z,13.20
2022-10-03T09:10:45.021Z,13.30
2022-10-03T09:13:33.025Z,13.40
2022-10-03T09:16:02.718Z,13.50
2022-10-03T09:18:35.596Z,13.50
2022-10-03T09:21:39.168Z,13.40
2022-10-03T09:24:21.778Z,13.30
2022-10-03T09:27:12.336Z,13.40
2022-10-03T09:30:10.704Z,13.30
2022-10-03T09:32:55.337Z,13.40
2022-10-03T09:35:28.388Z,13.50
2022-10-03T09:38:16.751Z,13.50
2022-10-03T09:40:55.632Z,13.60
2022-10-03T09:44:04.029Z,13.60
2022-10-03T09:46:44.150Z,13.70
2022-10-03T09:49:42.685Z,13.70
2022-10-03T09:52:39.450Z,13.70
2022-10-03T09:55:21.002Z,13.80
2022-10-03T09:58:19.376Z,14.00
2022-10-03T10:01:07.166Z,14.00
2022-10-03T10:03:45.967Z,14.10
2022-10-03T10:06:38.742Z,14.30
2022-10-03T10:09:46.228Z,14.80
2022-10-03T10:12:31.551Z,15.50
2022-10-03T10:15:28.931Z,15.10
2022-10-03T10:18:34.308Z,15.00
2022-10-03T10:21:29.040Z,14.80
2022-10-03T10:23:55.579Z,15.00
2022-10-03T10:26:48.714Z,14.70
2022-10-03T10:29:34.854Z,14.90
2022-10-03T10:32:43.227Z,14.50
2022-10-03T10:35:37.685Z,14.90
2022-10-03T10:38:37.441Z,15.10
2022-10-03T10:44:16.462Z,15.70
2022-10-03T10:47:29.983Z,15.10
2022-10-03T10:50:30.011Z,15.60
2022-10-03T10:53:37.792Z,15.30
2022-10-03T10:56:43.047Z,15.40
2022-10-03T10:59:28.931Z,15.20
2022-10-03T11:02:24.271Z,14.90
2022-10-03T11:05:34.390Z,14.80
2022-10-03T11:08:34.646Z,14.30
2022-10-03T11:11:32.311Z,14.00
2022-10-03T11:14:17.446Z,14.20
2022-10-03T11:17:11.971Z,14.40
2022-10-03T11:20:15.695Z,14.70
2022-10-03T11:23:17.727Z,15.10
2022-10-03T11:26:05.426Z,15.30
2022-10-03T11:29:13.786Z,16.00
2022-10-03T11:32:27.498Z,16.10
2022-10-03T11:35:23.674Z,16.50
2022-10-03T11:38:02.184Z,16.70
2022-10-03T11:41:13.049Z,15.50
2022-10-03T11:44:12.187Z,15.50
2022-10-03T11:47:01.823Z,15.90
2022-10-03T11:49:45.459Z,16.10
2022-10-03T11:52:29.516Z,16.40
2022-10-03T11:55:18.669Z,15.70
2022-10-03T11:58:14.707Z,15.80
2022-10-03T12:00:45.438Z,16.00
2022-10-03T12:03:21.626Z,16.00
2022-10-03T12:06:21.970Z,15.70
2022-10-03T12:09:16.963Z,16.10
2022-10-03T12:12:10.662Z,16.10
2022-10-03T12:14:46.606Z,16.20
2022-10-03T12:17:35.139Z,15.90
2022-10-03T12:20:18.458Z,15.30
2022-10-03T12:22:57.075Z,15.10
2022-10-03T12:25:34.773Z,15.40
2022-10-03T12:28:25.625Z,15.40
2022-10-03T12:31:06.564Z,15.60
2022-10-03T12:33:46.122Z,15.80
2022-10-03T12:36:15.372Z,15.60
2022-10-03T12:39:14.102Z,15.50
2022-10-03T12:42:14.443Z,15.50
2022-10-03T12:45:00.951Z,15.20
2022-10-03T12:47:56.328Z,15.30
2022-10-03T12:50:38.977Z,15.40
2022-10-03T12:53:17.716Z,15.40
2022-10-03T12:55:53.095Z,15.40
2022-10-03T12:58:39.420Z,15.60
2022-10-03T13:01:29.606Z,15.50
2022-10-03T13:04:00.421Z,15.80
2022-10-03T13:07:11.075Z,16.00
2022-10-03T13:09:58.697Z,15.50
2022-10-03T13:12:46.312Z,15.20
2022-10-03T13:15:18.864Z,15.20
2022-10-03T13:18:04.100Z,15.40
2022-10-03T13:20:36.984Z,15.60
2022-10-03T13:23:12.395Z,15.80
2022-10-03T13:25:49.166Z,15.90
2022-10-03T13:28:35.795Z,16.20
2022-10-03T13:31:13.851Z,16.10
2022-10-03T13:33:55.278Z,16.00
2022-10-03T13:36:42.179Z,16.00
2022-10-03T13:39:17.989Z,15.90
2022-10-03T13:42:05.680Z,15.90
2022-10-03T13:44:40.573Z,15.60
2022-10-03T13:47:43.545Z,15.60
2022-10-03T13:50:23.690Z,15.60
2022-10-03T13:53:13.726Z,15.40
2022-10-03T13:55:52.099Z,15.60
2022-10-03T13:58:24.789Z,15.90
2022-10-03T14:01:13.519Z,16.20
2022-10-03T14:04:08.941Z,16.10
2022-10-03T14:06:51.070Z,15.80
2022-10-03T14:09:17.577Z,16.00
2022-10-03T14:12:02.878Z,15.90
2022-10-03T14:15:00.365Z,16.00
2022-10-03T14:17:36.757Z,16.20
2022-10-03T14:20:33.024Z,15.80
2022-10-03T14:26:00.055Z,16.40
2022-10-03T14:28:45.183Z,16.80
2022-10-03T14:31:18.702Z,16.90
2022-10-03T14:34:04.409Z,17.00
2022-10-03T14:36:42.864Z,16.90
2022-10-03T14:39:32.692Z,16.50
2022-10-03T14:42:29.737Z,16.50
2022-10-03T14:45:03.603Z,17.00
2022-10-03T14:47:35.732Z,17.20
2022-10-03T14:50:04.779Z,17.20
2022-10-03T14:52:43.200Z,16.80
2022-10-03T14:55:29.977Z,16.90
2022-10-03T14:58:12.397Z,16.90
2022-10-03T15:00:45.725Z,16.90
2022-10-03T15:03:19.343Z,16.40
2022-10-03T15:05:54.591Z,16.40
2022-10-03T15:08:22.457Z,16.30
2022-10-03T15:10:53.480Z,16.40
2022-10-03T15:13:21.417Z,16.20
2022-10-03T15:15:50.572Z,16.20
2022-10-03T15:18:21.977Z,16.10
2022-10-03T15:20:52.576Z,16.30
2022-10-03T15:23:23.069Z,16.00
2022-10-03T15:25:53.879Z,16.10
2022-10-03T15:28:29.648Z,16.30
2022-10-03T15:31:08.419Z,16.20
2022-10-03T15:33:38.212Z,16.00
2022-10-03T15:36:24.609Z,15.80
2022-10-03T15:39:00.364Z,15.70
2022-10-03T15:41:35.037Z,15.80
2022-10-03T15:44:33.519Z,16.00
2022-10-03T15:47:06.150Z,15.90
2022-10-03T15:49:38.780Z,15.90
2022-10-03T15:52:22.954Z,15.90
2022-10-03T15:55:11.408Z,16.00
2022-10-03T15:57:44.347Z,15.70
2022-10-03T16:00:28.768Z,15.50
2022-10-03T16:03:13.685Z,15.30
2022-10-03T16:05:55.037Z,15.10
2022-10-03T16:08:26.445Z,15.10
2022-10-03T16:11:12.195Z,15.00
2022-10-03T16:13:44.747Z,14.80
2022-10-03T16:16:18.922Z,14.70
2022-10-03T16:18:53.766Z,14.50
2022-10-03T16:21:41.123Z,14.40
2022-10-03T16:24:31.418Z,14.20
2022-10-03T16:27:12.732Z,14.00
2022-10-03T16:29:49.816Z,13.90
2022-10-03T16:32:20.929Z,13.80
2022-10-03T16:37:26.246Z,13.60
2022-10-03T16:40:00.837Z,13.40
2022-10-03T16:50:17.472Z,12.80
2022-10-03T16:52:48.658Z,12.70
2022-10-03T16:55:43.672Z,12.50
2022-10-03T16:58:15.739Z,12.30
2022-10-03T17:01:15.349Z,12.10
2022-10-03T17:03:48.231Z,12.00
2022-10-03T17:06:33.220Z,11.80
